Country
Station

 

Weather  for  New Haven, Tweed-New Haven Airport  -  United States    United States

  
22 °C (72 °F)
    
 
 

Current METAR for New Haven, Tweed-New Haven Airport is :

KHVN 021153Z 36003KT 10SM CLR 22/19 A2984 RMK AO2 SLP104 70030 T02220189 10222 20183 50004

 

This is a report for New Haven, Tweed-New Haven Airport - United States.
 
The report was made 23 minutes ago, at 11:53 UTC .
The wind was blowing at a speed of 1.5 meters per second (3.5 miles per hour) from north (360°).
 
The temperature was 22 °C (72 °F), with a dew-point at 19 °C (66 °F).
The temperature felt like 22 °C (71 °F).
 
The atmospheric pressure was 1011 hPa (29.84 inHg).
The relative humidity was 83.1%.
 
The sky was clear.
 
The overall visibility was 16.1 kilometers (10.0 miles).
 

 
 
 
 

Country :   A   B   C   D   E   F   G   H   I   J   K   L   M   N   O   P   Q   R   S   T   U   V   W   Y   Z

 

Site Info  |  Disclaimer  |  Credits  |  Privacy
Contact us  |  Add to favorites
© 2013-2020 METARs - All rights reserved